sensor_id;sensor_type;location;lat;lon;timestamp;pressure;altitude;pressure_sealevel;temperature;humidity
6778;BME280;3426;52.244;10.534;2023-03-20T00:01:51;100796.31;;;15.05;71.61
6778;BME280;3426;52.244;10.534;2023-03-20T00:04:18;100794.19;;;14.98;71.49
6778;BME280;3426;52.244;10.534;2023-03-20T00:06:44;100797.47;;;15.01;71.77
6778;BME280;3426;52.244;10.534;2023-03-20T00:09:11;100801.31;;;14.97;71.60
6778;BME280;3426;52.244;10.534;2023-03-20T00:11:45;100802.94;;;14.87;71.37
6778;BME280;3426;52.244;10.534;2023-03-20T00:14:15;100803.38;;;14.81;72.29
6778;BME280;3426;52.244;10.534;2023-03-20T00:16:44;100811.66;;;14.89;72.04
6778;BME280;3426;52.244;10.534;2023-03-20T00:19:15;100808.88;;;14.91;71.47
6778;BME280;3426;52.244;10.534;2023-03-20T00:21:46;100806.66;;;14.84;71.50
6778;BME280;3426;52.244;10.534;2023-03-20T00:24:14;100812.75;;;14.87;71.70
6778;BME280;3426;52.244;10.534;2023-03-20T00:26:42;100801.19;;;14.86;71.90
6778;BME280;3426;52.244;10.534;2023-03-20T00:29:18;100801.84;;;14.77;71.90
6778;BME280;3426;52.244;10.534;2023-03-20T00:31:47;100802.41;;;14.82;71.79
6778;BME280;3426;52.244;10.534;2023-03-20T00:34:19;100796.19;;;14.69;72.54
6778;BME280;3426;52.244;10.534;2023-03-20T00:36:46;100798.22;;;14.78;72.21
6778;BME280;3426;52.244;10.534;2023-03-20T00:39:12;100791.94;;;14.79;71.76
6778;BME280;3426;52.244;10.534;2023-03-20T00:42:01;100800.47;;;14.71;71.63
6778;BME280;3426;52.244;10.534;2023-03-20T00:47:18;100797.16;;;14.80;71.36
6778;BME280;3426;52.244;10.534;2023-03-20T00:49:46;100795.38;;;14.81;71.21
6778;BME280;3426;52.244;10.534;2023-03-20T00:52:13;100796.22;;;14.81;71.11
6778;BME280;3426;52.244;10.534;2023-03-20T00:54:41;100793.88;;;14.77;71.19
6778;BME280;3426;52.244;10.534;2023-03-20T01:00:03;100796.03;;;14.45;71.20
6778;BME280;3426;52.244;10.534;2023-03-20T01:02:33;100801.91;;;14.37;72.49
6778;BME280;3426;52.244;10.534;2023-03-20T01:05:00;100807.06;;;14.53;71.47
6778;BME280;3426;52.244;10.534;2023-03-20T01:07:27;100806.00;;;14.55;71.43
6778;BME280;3426;52.244;10.534;2023-03-20T01:09:53;100811.06;;;14.46;72.12
6778;BME280;3426;52.244;10.534;2023-03-20T01:12:20;100806.81;;;14.43;71.75
6778;BME280;3426;52.244;10.534;2023-03-20T01:14:52;100805.69;;;14.20;72.23
6778;BME280;3426;52.244;10.534;2023-03-20T01:17:21;100805.16;;;14.28;73.36
6778;BME280;3426;52.244;10.534;2023-03-20T01:19:48;100810.09;;;14.34;72.50
6778;BME280;3426;52.244;10.534;2023-03-20T01:22:15;100808.91;;;14.25;72.77
6778;BME280;3426;52.244;10.534;2023-03-20T01:24:43;100807.28;;;14.23;73.16
6778;BME280;3426;52.244;10.534;2023-03-20T01:27:13;100806.69;;;14.32;72.06
6778;BME280;3426;52.244;10.534;2023-03-20T01:29:40;100806.25;;;13.98;73.70
6778;BME280;3426;52.244;10.534;2023-03-20T01:32:12;100808.78;;;13.87;74.21
6778;BME280;3426;52.244;10.534;2023-03-20T01:34:39;100804.66;;;13.96;74.59
6778;BME280;3426;52.244;10.534;2023-03-20T01:37:11;100806.78;;;13.49;77.21
6778;BME280;3426;52.244;10.534;2023-03-20T01:39:39;100807.84;;;13.18;77.33
6778;BME280;3426;52.244;10.534;2023-03-20T01:42:05;100816.75;;;12.74;79.93
6778;BME280;3426;52.244;10.534;2023-03-20T01:44:34;100820.00;;;13.51;77.32
6778;BME280;3426;52.244;10.534;2023-03-20T01:47:10;100824.25;;;12.68;80.16
6778;BME280;3426;52.244;10.534;2023-03-20T01:52:43;100815.31;;;13.69;77.87
6778;BME280;3426;52.244;10.534;2023-03-20T01:55:10;100824.63;;;12.62;81.30
6778;BME280;3426;52.244;10.534;2023-03-20T01:57:37;100829.47;;;12.69;82.40
6778;BME280;3426;52.244;10.534;2023-03-20T02:00:07;100822.94;;;13.04;79.62
6778;BME280;3426;52.244;10.534;2023-03-20T02:02:36;100824.50;;;13.22;79.14
6778;BME280;3426;52.244;10.534;2023-03-20T02:05:07;100833.94;;;13.55;76.76
6778;BME280;3426;52.244;10.534;2023-03-20T02:07:34;100830.38;;;13.41;78.16
6778;BME280;3426;52.244;10.534;2023-03-20T02:10:04;100837.38;;;13.57;76.56
6778;BME280;3426;52.244;10.534;2023-03-20T02:12:32;100836.06;;;13.21;77.64
6778;BME280;3426;52.244;10.534;2023-03-20T02:14:59;100847.44;;;13.66;78.12
6778;BME280;3426;52.244;10.534;2023-03-20T02:17:26;100850.13;;;12.20;82.29
6778;BME280;3426;52.244;10.534;2023-03-20T02:41:34;100874.81;;;13.53;74.34
6778;BME280;3426;52.244;10.534;2023-03-20T02:47:02;100886.09;;;13.71;73.62
6778;BME280;3426;52.244;10.534;2023-03-20T02:49:49;100878.91;;;13.31;74.93
6778;BME280;3426;52.244;10.534;2023-03-20T02:58:03;100886.84;;;13.88;72.96
6778;BME280;3426;52.244;10.534;2023-03-20T03:00:41;100894.19;;;13.70;73.75
6778;BME280;3426;52.244;10.534;2023-03-20T03:03:27;100893.22;;;13.85;73.16
6778;BME280;3426;52.244;10.534;2023-03-20T03:08:44;100891.91;;;13.07;73.95
6778;BME280;3426;52.244;10.534;2023-03-20T03:11:13;100899.63;;;13.54;75.80
6778;BME280;3426;52.244;10.534;2023-03-20T03:13:50;100894.88;;;12.86;78.42
6778;BME280;3426;52.244;10.534;2023-03-20T03:16:34;100896.16;;;12.19;79.81
6778;BME280;3426;52.244;10.534;2023-03-20T03:21:35;100899.38;;;12.56;78.92
6778;BME280;3426;52.244;10.534;2023-03-20T03:24:03;100903.03;;;12.23;82.45
6778;BME280;3426;52.244;10.534;2023-03-20T03:26:33;100899.25;;;12.87;78.68
6778;BME280;3426;52.244;10.534;2023-03-20T03:29:05;100897.63;;;12.25;82.37
6778;BME280;3426;52.244;10.534;2023-03-20T03:31:37;100897.47;;;12.58;80.63
6778;BME280;3426;52.244;10.534;2023-03-20T03:34:04;100897.56;;;12.10;81.13
6778;BME280;3426;52.244;10.534;2023-03-20T03:36:53;100903.88;;;12.39;81.58
6778;BME280;3426;52.244;10.534;2023-03-20T03:39:30;100901.09;;;11.62;85.96
6778;BME280;3426;52.244;10.534;2023-03-20T03:47:18;100898.41;;;12.11;81.14
6778;BME280;3426;52.244;10.534;2023-03-20T03:49:54;100906.63;;;11.90;82.90
6778;BME280;3426;52.244;10.534;2023-03-20T03:52:23;100906.78;;;12.19;83.45
6778;BME280;3426;52.244;10.534;2023-03-20T03:54:56;100905.44;;;11.80;82.84
6778;BME280;3426;52.244;10.534;2023-03-20T03:57:45;100905.56;;;12.70;80.44
6778;BME280;3426;52.244;10.534;2023-03-20T04:00:16;100891.31;;;13.02;76.67
6778;BME280;3426;52.244;10.534;2023-03-20T04:02:47;100890.28;;;12.60;79.43
6778;BME280;3426;52.244;10.534;2023-03-20T04:05:15;100895.50;;;13.20;76.23
6778;BME280;3426;52.244;10.534;2023-03-20T04:07:45;100888.63;;;13.46;74.86
6778;BME280;3426;52.244;10.534;2023-03-20T04:10:13;100887.56;;;13.48;74.37
6778;BME280;3426;52.244;10.534;2023-03-20T04:12:41;100899.06;;;12.30;77.26
6778;BME280;3426;52.244;10.534;2023-03-20T04:15:10;100889.41;;;13.04;74.43
6778;BME280;3426;52.244;10.534;2023-03-20T04:17:38;100891.91;;;13.07;74.91
6778;BME280;3426;52.244;10.534;2023-03-20T04:20:05;100891.69;;;12.95;74.21
6778;BME280;3426;52.244;10.534;2023-03-20T04:22:33;100891.31;;;13.02;73.56
6778;BME280;3426;52.244;10.534;2023-03-20T04:25:01;100893.97;;;13.02;74.01
6778;BME280;3426;52.244;10.534;2023-03-20T04:27:29;100888.06;;;12.52;74.33
6778;BME280;3426;52.244;10.534;2023-03-20T04:29:55;100894.66;;;12.75;74.03
6778;BME280;3426;52.244;10.534;2023-03-20T04:32:21;100898.16;;;13.06;74.85
6778;BME280;3426;52.244;10.534;2023-03-20T04:34:48;100898.53;;;12.99;73.97
6778;BME280;3426;52.244;10.534;2023-03-20T04:37:15;100901.16;;;13.30;72.35
6778;BME280;3426;52.244;10.534;2023-03-20T04:39:41;100900.69;;;13.51;71.05
6778;BME280;3426;52.244;10.534;2023-03-20T04:42:08;100902.19;;;13.56;70.60
6778;BME280;3426;52.244;10.534;2023-03-20T04:44:34;100896.78;;;13.43;71.00
6778;BME280;3426;52.244;10.534;2023-03-20T04:47:01;100897.06;;;13.52;70.95
6778;BME280;3426;52.244;10.534;2023-03-20T04:49:27;100897.38;;;12.89;72.88
6778;BME280;3426;52.244;10.534;2023-03-20T04:51:54;100897.50;;;13.16;72.20
6778;BME280;3426;52.244;10.534;2023-03-20T04:54:21;100900.94;;;13.33;71.10
6778;BME280;3426;52.244;10.534;2023-03-20T04:56:47;100902.28;;;13.25;71.07
6778;BME280;3426;52.244;10.534;2023-03-20T04:59:14;100895.88;;;13.14;71.04
6778;BME280;3426;52.244;10.534;2023-03-20T05:01:41;100895.50;;;13.06;72.35
6778;BME280;3426;52.244;10.534;2023-03-20T05:04:07;100891.00;;;13.22;71.16
6778;BME280;3426;52.244;10.534;2023-03-20T05:06:34;100890.41;;;13.31;71.24
6778;BME280;3426;52.244;10.534;2023-03-20T05:09:01;100880.06;;;13.26;71.39
6778;BME280;3426;52.244;10.534;2023-03-20T05:11:27;100874.91;;;13.38;71.04
6778;BME280;3426;52.244;10.534;2023-03-20T05:13:54;100877.13;;;13.31;71.75
6778;BME280;3426;52.244;10.534;2023-03-20T05:16:20;100883.97;;;12.46;74.25
6778;BME280;3426;52.244;10.534;2023-03-20T05:18:47;100890.53;;;12.85;73.97
6778;BME280;3426;52.244;10.534;2023-03-20T05:21:14;100882.38;;;12.58;74.94
6778;BME280;3426;52.244;10.534;2023-03-20T05:23:40;100885.63;;;13.08;72.30
6778;BME280;3426;52.244;10.534;2023-03-20T05:26:07;100884.56;;;13.10;72.21
6778;BME280;3426;52.244;10.534;2023-03-20T05:28:33;100890.66;;;12.54;73.39
6778;BME280;3426;52.244;10.534;2023-03-20T05:31:00;100885.16;;;13.01;73.38
6778;BME280;3426;52.244;10.534;2023-03-20T05:33:27;100886.47;;;12.94;72.08
6778;BME280;3426;52.244;10.534;2023-03-20T05:35:53;100894.91;;;12.56;74.27
6778;BME280;3426;52.244;10.534;2023-03-20T05:38:20;100883.38;;;12.71;73.92
6778;BME280;3426;52.244;10.534;2023-03-20T05:40:48;100893.34;;;12.68;74.01
6778;BME280;3426;52.244;10.534;2023-03-20T05:43:15;100899.44;;;12.84;72.19
6778;BME280;3426;52.244;10.534;2023-03-20T05:45:42;100897.56;;;12.56;73.09
6778;BME280;3426;52.244;10.534;2023-03-20T05:48:08;100884.19;;;13.02;72.12
6778;BME280;3426;52.244;10.534;2023-03-20T05:50:35;100882.22;;;12.61;71.22
6778;BME280;3426;52.244;10.534;2023-03-20T05:53:01;100886.00;;;13.02;70.80
6778;BME280;3426;52.244;10.534;2023-03-20T05:55:28;100887.19;;;13.26;69.92
6778;BME280;3426;52.244;10.534;2023-03-20T05:57:54;100876.28;;;12.86;70.59
6778;BME280;3426;52.244;10.534;2023-03-20T06:00:22;100886.03;;;12.41;73.35
6778;BME280;3426;52.244;10.534;2023-03-20T06:02:48;100888.81;;;12.98;72.35
6778;BME280;3426;52.244;10.534;2023-03-20T06:05:15;100889.59;;;13.00;71.61
6778;BME280;3426;52.244;10.534;2023-03-20T06:07:42;100891.56;;;12.83;71.17
6778;BME280;3426;52.244;10.534;2023-03-20T06:10:09;100888.53;;;13.33;69.62
6778;BME280;3426;52.244;10.534;2023-03-20T06:12:36;100881.22;;;13.51;68.96
6778;BME280;3426;52.244;10.534;2023-03-20T06:15:02;100880.34;;;13.50;69.26
6778;BME280;3426;52.244;10.534;2023-03-20T06:17:29;100890.91;;;13.52;68.96
6778;BME280;3426;52.244;10.534;2023-03-20T06:19:55;100889.25;;;13.21;69.74
6778;BME280;3426;52.244;10.534;2023-03-20T06:22:22;100897.59;;;13.15;69.82
6778;BME280;3426;52.244;10.534;2023-03-20T06:24:48;100890.81;;;13.39;68.97
6778;BME280;3426;52.244;10.534;2023-03-20T06:27:15;100899.56;;;12.97;69.88
6778;BME280;3426;52.244;10.534;2023-03-20T06:29:42;100899.09;;;12.90;71.28
6778;BME280;3426;52.244;10.534;2023-03-20T06:32:08;100897.81;;;13.26;70.78
6778;BME280;3426;52.244;10.534;2023-03-20T06:34:37;100901.63;;;13.22;69.74
6778;BME280;3426;52.244;10.534;2023-03-20T06:37:04;100895.75;;;13.45;68.85
6778;BME280;3426;52.244;10.534;2023-03-20T06:39:30;100902.75;;;13.61;67.50
6778;BME280;3426;52.244;10.534;2023-03-20T06:41:57;100913.31;;;13.48;67.83
6778;BME280;3426;52.244;10.534;2023-03-20T06:44:24;100909.13;;;13.30;70.17
6778;BME280;3426;52.244;10.534;2023-03-20T06:46:50;100908.81;;;13.06;70.95
6778;BME280;3426;52.244;10.534;2023-03-20T06:49:17;100913.50;;;13.31;68.81
6778;BME280;3426;52.244;10.534;2023-03-20T06:51:43;100915.19;;;12.87;69.97
6778;BME280;3426;52.244;10.534;2023-03-20T06:54:12;100910.09;;;12.98;70.55
6778;BME280;3426;52.244;10.534;2023-03-20T06:56:39;100918.91;;;13.43;68.72
6778;BME280;3426;52.244;10.534;2023-03-20T06:59:05;100910.63;;;13.76;67.10
6778;BME280;3426;52.244;10.534;2023-03-20T07:01:32;100918.44;;;13.22;67.65
6778;BME280;3426;52.244;10.534;2023-03-20T07:03:59;100915.88;;;13.35;69.16
6778;BME280;3426;52.244;10.534;2023-03-20T07:06:26;100916.81;;;13.48;67.26
6778;BME280;3426;52.244;10.534;2023-03-20T07:08:53;100922.16;;;13.34;68.22
6778;BME280;3426;52.244;10.534;2023-03-20T07:11:20;100922.75;;;13.09;69.39
6778;BME280;3426;52.244;10.534;2023-03-20T07:13:46;100917.13;;;13.30;68.42
6778;BME280;3426;52.244;10.534;2023-03-20T07:16:15;100921.31;;;12.89;70.76
6778;BME280;3426;52.244;10.534;2023-03-20T07:18:42;100924.22;;;12.85;70.50
6778;BME280;3426;52.244;10.534;2023-03-20T07:21:15;100931.03;;;13.19;68.64
6778;BME280;3426;52.244;10.534;2023-03-20T07:23:42;100932.13;;;13.31;69.21
6778;BME280;3426;52.244;10.534;2023-03-20T07:26:09;100936.09;;;12.33;70.94
6778;BME280;3426;52.244;10.534;2023-03-20T07:28:35;100945.56;;;12.53;71.31
6778;BME280;3426;52.244;10.534;2023-03-20T07:31:02;100941.47;;;13.08;69.93
6778;BME280;3426;52.244;10.534;2023-03-20T07:33:29;100949.72;;;13.62;67.74
6778;BME280;3426;52.244;10.534;2023-03-20T07:35:55;100951.97;;;12.95;70.93
6778;BME280;3426;52.244;10.534;2023-03-20T07:38:22;100946.97;;;13.05;70.90
6778;BME280;3426;52.244;10.534;2023-03-20T07:40:48;100941.66;;;13.19;69.37
6778;BME280;3426;52.244;10.534;2023-03-20T07:43:15;100945.16;;;13.35;69.37
6778;BME280;3426;52.244;10.534;2023-03-20T07:45:42;100944.09;;;12.93;70.20
6778;BME280;3426;52.244;10.534;2023-03-20T07:48:09;100940.00;;;13.32;69.88
6778;BME280;3426;52.244;10.534;2023-03-20T07:50:35;100947.72;;;13.22;70.65
6778;BME280;3426;52.244;10.534;2023-03-20T07:53:02;100952.47;;;13.16;69.59
6778;BME280;3426;52.244;10.534;2023-03-20T07:55:28;100945.69;;;13.26;69.02
6778;BME280;3426;52.244;10.534;2023-03-20T07:57:55;100944.41;;;12.73;70.76
6778;BME280;3426;52.244;10.534;2023-03-20T08:00:21;100949.47;;;12.32;73.43
6778;BME280;3426;52.244;10.534;2023-03-20T08:02:48;100944.13;;;13.08;71.81
6778;BME280;3426;52.244;10.534;2023-03-20T08:05:15;100950.13;;;12.35;73.91
6778;BME280;3426;52.244;10.534;2023-03-20T08:07:41;100950.25;;;13.24;70.29
6778;BME280;3426;52.244;10.534;2023-03-20T08:10:09;100943.81;;;12.98;71.98
6778;BME280;3426;52.244;10.534;2023-03-20T08:12:35;100945.44;;;13.00;71.19
6778;BME280;3426;52.244;10.534;2023-03-20T08:15:02;100937.47;;;13.00;71.13
6778;BME280;3426;52.244;10.534;2023-03-20T08:17:29;100925.19;;;13.71;68.86
6778;BME280;3426;52.244;10.534;2023-03-20T08:19:55;100926.38;;;14.08;67.32
6778;BME280;3426;52.244;10.534;2023-03-20T08:22:22;100934.41;;;13.37;70.25
6778;BME280;3426;52.244;10.534;2023-03-20T08:24:48;100934.00;;;12.84;71.69
6778;BME280;3426;52.244;10.534;2023-03-20T08:27:15;100936.88;;;12.95;70.48
6778;BME280;3426;52.244;10.534;2023-03-20T08:29:42;100936.34;;;13.19;71.06
6778;BME280;3426;52.244;10.534;2023-03-20T08:32:08;100946.88;;;12.46;73.37
6778;BME280;3426;52.244;10.534;2023-03-20T08:34:35;100942.16;;;13.11;71.82
6778;BME280;3426;52.244;10.534;2023-03-20T08:37:03;100949.00;;;12.55;72.89
6778;BME280;3426;52.244;10.534;2023-03-20T08:39:30;100952.97;;;12.78;72.59
6778;BME280;3426;52.244;10.534;2023-03-20T08:41:58;100957.16;;;13.12;71.70
6778;BME280;3426;52.244;10.534;2023-03-20T08:44:26;100951.19;;;12.93;72.68
6778;BME280;3426;52.244;10.534;2023-03-20T08:46:52;100953.91;;;13.07;71.82
6778;BME280;3426;52.244;10.534;2023-03-20T08:49:20;100951.72;;;13.14;71.09
6778;BME280;3426;52.244;10.534;2023-03-20T08:51:46;100960.59;;;12.98;72.68
6778;BME280;3426;52.244;10.534;2023-03-20T08:54:13;100952.25;;;13.92;69.30
6778;BME280;3426;52.244;10.534;2023-03-20T08:56:44;100957.88;;;13.30;70.46
6778;BME280;3426;52.244;10.534;2023-03-20T08:59:11;100964.50;;;14.09;69.48
6778;BME280;3426;52.244;10.534;2023-03-20T09:01:38;100962.78;;;12.92;73.40
6778;BME280;3426;52.244;10.534;2023-03-20T09:04:15;100959.50;;;13.90;70.00
6778;BME280;3426;52.244;10.534;2023-03-20T09:06:42;100953.13;;;13.35;70.46
6778;BME280;3426;52.244;10.534;2023-03-20T09:09:08;100953.50;;;13.86;70.45
6778;BME280;3426;52.244;10.534;2023-03-20T09:11:35;100957.13;;;13.42;68.53
6778;BME280;3426;52.244;10.534;2023-03-20T09:14:02;100956.72;;;14.32;66.88
6778;BME280;3426;52.244;10.534;2023-03-20T09:16:29;100955.81;;;13.05;67.20
6778;BME280;3426;52.244;10.534;2023-03-20T09:18:55;100969.38;;;13.00;68.83
6778;BME280;3426;52.244;10.534;2023-03-20T09:21:22;100969.91;;;12.91;68.03
6778;BME280;3426;52.244;10.534;2023-03-20T09:23:48;100967.66;;;12.99;68.88
6778;BME280;3426;52.244;10.534;2023-03-20T09:26:15;100986.31;;;13.58;65.41
6778;BME280;3426;52.244;10.534;2023-03-20T09:28:42;100980.97;;;13.58;64.35
6778;BME280;3426;52.244;10.534;2023-03-20T09:31:08;100976.53;;;12.54;67.19
6778;BME280;3426;52.244;10.534;2023-03-20T09:33:35;100978.09;;;13.03;64.58
6778;BME280;3426;52.244;10.534;2023-03-20T09:36:01;100974.81;;;13.58;63.13
6778;BME280;3426;52.244;10.534;2023-03-20T09:38:28;100973.09;;;13.12;65.71
6778;BME280;3426;52.244;10.534;2023-03-20T09:41:02;100984.69;;;13.56;64.56
6778;BME280;3426;52.244;10.534;2023-03-20T09:47:07;100984.69;;;13.41;64.94
6778;BME280;3426;52.244;10.534;2023-03-20T09:52:47;100991.88;;;13.25;64.50
6778;BME280;3426;52.244;10.534;2023-03-20T09:55:21;100990.09;;;13.54;63.75
6778;BME280;3426;52.244;10.534;2023-03-20T09:57:53;100983.72;;;13.99;62.90
6778;BME280;3426;52.244;10.534;2023-03-20T10:00:25;100981.22;;;13.25;65.19
6778;BME280;3426;52.244;10.534;2023-03-20T10:03:01;100983.97;;;12.93;65.60
6778;BME280;3426;52.244;10.534;2023-03-20T10:05:37;100974.97;;;13.10;66.75
6778;BME280;3426;52.244;10.534;2023-03-20T10:08:08;100982.13;;;13.40;65.03
6778;BME280;3426;52.244;10.534;2023-03-20T10:13:44;100986.22;;;12.85;65.47
6778;BME280;3426;52.244;10.534;2023-03-20T10:19:18;100985.53;;;13.12;65.35
6778;BME280;3426;52.244;10.534;2023-03-20T10:21:49;100987.59;;;13.37;62.80
6778;BME280;3426;52.244;10.534;2023-03-20T10:24:28;100998.72;;;13.43;63.49
6778;BME280;3426;52.244;10.534;2023-03-20T10:27:04;101002.38;;;13.71;62.12
6778;BME280;3426;52.244;10.534;2023-03-20T10:29:59;100991.66;;;12.98;63.02
6778;BME280;3426;52.244;10.534;2023-03-20T10:32:34;100985.50;;;12.52;64.42
6778;BME280;3426;52.244;10.534;2023-03-20T10:40:25;100986.66;;;13.08;64.86
6778;BME280;3426;52.244;10.534;2023-03-20T10:42:55;100992.41;;;12.70;65.69
6778;BME280;3426;52.244;10.534;2023-03-20T10:45:45;100990.00;;;13.56;63.16
6778;BME280;3426;52.244;10.534;2023-03-20T10:48:19;100983.88;;;13.25;64.71
6778;BME280;3426;52.244;10.534;2023-03-20T10:50:50;100984.13;;;13.50;63.40
6778;BME280;3426;52.244;10.534;2023-03-20T10:53:51;100981.06;;;13.28;64.00
6778;BME280;3426;52.244;10.534;2023-03-20T10:58:57;100987.16;;;13.87;61.32
6778;BME280;3426;52.244;10.534;2023-03-20T11:01:26;100980.03;;;12.85;63.54
6778;BME280;3426;52.244;10.534;2023-03-20T11:03:53;100979.69;;;12.91;64.23
6778;BME280;3426;52.244;10.534;2023-03-20T11:06:27;100978.50;;;13.84;62.35
6778;BME280;3426;52.244;10.534;2023-03-20T11:09:09;100974.19;;;13.38;62.82
6778;BME280;3426;52.244;10.534;2023-03-20T11:11:37;100972.72;;;13.63;62.41
6778;BME280;3426;52.244;10.534;2023-03-20T11:14:17;100979.19;;;13.73;61.60
6778;BME280;3426;52.244;10.534;2023-03-20T11:16:47;100968.13;;;14.49;59.27
6778;BME280;3426;52.244;10.534;2023-03-20T11:19:15;100968.41;;;13.89;62.13
6778;BME280;3426;52.244;10.534;2023-03-20T11:21:51;100970.34;;;13.58;62.91
6778;BME280;3426;52.244;10.534;2023-03-20T11:24:40;100962.81;;;14.08;60.19
6778;BME280;3426;52.244;10.534;2023-03-20T11:27:09;100955.06;;;14.44;59.75
6778;BME280;3426;52.244;10.534;2023-03-20T11:29:38;100962.41;;;14.14;62.11
6778;BME280;3426;52.244;10.534;2023-03-20T11:34:45;100953.00;;;14.08;62.04
6778;BME280;3426;52.244;10.534;2023-03-20T11:37:21;100951.44;;;13.63;61.11
6778;BME280;3426;52.244;10.534;2023-03-20T11:42:38;100943.53;;;13.03;60.68
6778;BME280;3426;52.244;10.534;2023-03-20T11:45:15;100940.81;;;14.04;57.89
6778;BME280;3426;52.244;10.534;2023-03-20T11:47:42;100939.47;;;14.11;57.24
6778;BME280;3426;52.244;10.534;2023-03-20T11:52:52;100935.78;;;13.99;57.08
6778;BME280;3426;52.244;10.534;2023-03-20T11:55:30;100937.19;;;14.19;57.58
6778;BME280;3426;52.244;10.534;2023-03-20T11:57:59;100928.69;;;13.86;58.54
6778;BME280;3426;52.244;10.534;2023-03-20T12:00:38;100929.31;;;14.03;58.44
6778;BME280;3426;52.244;10.534;2023-03-20T12:06:15;100925.28;;;14.25;54.06
6778;BME280;3426;52.244;10.534;2023-03-20T12:08:46;100916.19;;;14.00;55.40
6778;BME280;3426;52.244;10.534;2023-03-20T12:11:23;100916.97;;;14.56;54.40
6778;BME280;3426;52.244;10.534;2023-03-20T12:13:56;100920.41;;;13.19;54.58
6778;BME280;3426;52.244;10.534;2023-03-20T12:16:26;100916.63;;;13.66;54.91
6778;BME280;3426;52.244;10.534;2023-03-20T12:18:56;100915.97;;;14.72;52.30
6778;BME280;3426;52.244;10.534;2023-03-20T12:22:02;100913.28;;;13.91;53.97
6778;BME280;3426;52.244;10.534;2023-03-20T12:24:44;100913.03;;;13.38;54.89
6778;BME280;3426;52.244;10.534;2023-03-20T12:27:27;100909.19;;;14.26;52.77
6778;BME280;3426;52.244;10.534;2023-03-20T12:35:29;100897.13;;;14.21;54.66
6778;BME280;3426;52.244;10.534;2023-03-20T12:37:57;100895.41;;;14.20;54.85
6778;BME280;3426;52.244;10.534;2023-03-20T12:40:33;100896.47;;;14.97;52.77
6778;BME280;3426;52.244;10.534;2023-03-20T12:43:21;100896.31;;;14.33;53.17
6778;BME280;3426;52.244;10.534;2023-03-20T12:47:21;100887.78;;;14.41;53.57
6778;BME280;3426;52.244;10.534;2023-03-20T12:52:11;100890.13;;;14.60;54.28
6778;BME280;3426;52.244;10.534;2023-03-20T12:57:31;100894.59;;;13.35;53.04
6778;BME280;3426;52.244;10.534;2023-03-20T13:02:33;100897.25;;;13.35;52.98
6778;BME280;3426;52.244;10.534;2023-03-20T13:13:56;100885.38;;;14.23;52.05
6778;BME280;3426;52.244;10.534;2023-03-20T13:19:31;100877.47;;;13.68;51.09
6778;BME280;3426;52.244;10.534;2023-03-20T13:22:10;100885.66;;;13.36;52.38
6778;BME280;3426;52.244;10.534;2023-03-20T13:24:43;100878.34;;;13.54;50.23
6778;BME280;3426;52.244;10.534;2023-03-20T13:30:22;100864.53;;;14.57;49.70
6778;BME280;3426;52.244;10.534;2023-03-20T13:33:32;100863.13;;;14.51;49.47
6778;BME280;3426;52.244;10.534;2023-03-20T13:36:02;100862.81;;;14.29;49.48
6778;BME280;3426;52.244;10.534;2023-03-20T13:38:34;100872.09;;;13.82;49.27
6778;BME280;3426;52.244;10.534;2023-03-20T13:41:05;100863.06;;;14.91;47.81
6778;BME280;3426;52.244;10.534;2023-03-20T13:43:46;100869.06;;;15.07;47.24
6778;BME280;3426;52.244;10.534;2023-03-20T13:46:18;100870.88;;;15.20;46.94
6778;BME280;3426;52.244;10.534;2023-03-20T13:48:49;100870.75;;;14.83;47.33
6778;BME280;3426;52.244;10.534;2023-03-20T13:51:26;100866.06;;;14.07;48.02
6778;BME280;3426;52.244;10.534;2023-03-20T13:56:42;100845.88;;;14.57;48.14
6778;BME280;3426;52.244;10.534;2023-03-20T14:05:04;100846.34;;;13.83;48.36
6778;BME280;3426;52.244;10.534;2023-03-20T14:07:35;100851.53;;;13.98;48.42
6778;BME280;3426;52.244;10.534;2023-03-20T14:15:21;100846.75;;;14.70;46.57
6778;BME280;3426;52.244;10.534;2023-03-20T14:17:52;100843.44;;;14.00;47.16
6778;BME280;3426;52.244;10.534;2023-03-20T14:20:31;100842.88;;;14.22;48.13
6778;BME280;3426;52.244;10.534;2023-03-20T14:22:58;100843.66;;;14.64;46.68
6778;BME280;3426;52.244;10.534;2023-03-20T14:25:28;100846.34;;;15.02;45.70
6778;BME280;3426;52.244;10.534;2023-03-20T14:28:05;100846.69;;;14.18;47.31
6778;BME280;3426;52.244;10.534;2023-03-20T14:30:40;100838.34;;;14.89;46.78
6778;BME280;3426;52.244;10.534;2023-03-20T14:36:10;100838.03;;;14.41;47.57
6778;BME280;3426;52.244;10.534;2023-03-20T14:38:47;100834.41;;;14.42;45.99
6778;BME280;3426;52.244;10.534;2023-03-20T14:41:23;100835.03;;;14.46;46.97
6778;BME280;3426;52.244;10.534;2023-03-20T14:50:04;100838.47;;;14.35;46.40
6778;BME280;3426;52.244;10.534;2023-03-20T14:55:49;100849.44;;;14.70;45.60
6778;BME280;3426;52.244;10.534;2023-03-20T14:58:41;100853.31;;;13.71;46.90
6778;BME280;3426;52.244;10.534;2023-03-20T15:04:01;100847.28;;;13.96;46.65
6778;BME280;3426;52.244;10.534;2023-03-20T15:06:33;100843.00;;;13.52;47.42
6778;BME280;3426;52.244;10.534;2023-03-20T15:09:07;100846.31;;;14.24;46.98
6778;BME280;3426;52.244;10.534;2023-03-20T15:11:34;100846.94;;;13.73;47.45
6778;BME280;3426;52.244;10.534;2023-03-20T15:14:05;100841.78;;;13.85;47.53
6778;BME280;3426;52.244;10.534;2023-03-20T15:16:34;100845.00;;;14.17;46.84
6778;BME280;3426;52.244;10.534;2023-03-20T15:19:07;100840.34;;;13.38;47.81
6778;BME280;3426;52.244;10.534;2023-03-20T15:21:42;100840.50;;;13.20;48.36
6778;BME280;3426;52.244;10.534;2023-03-20T15:24:18;100840.91;;;13.57;47.62
6778;BME280;3426;52.244;10.534;2023-03-20T15:26:44;100841.06;;;13.68;47.57
6778;BME280;3426;52.244;10.534;2023-03-20T15:29:15;100840.78;;;14.67;45.65
6778;BME280;3426;52.244;10.534;2023-03-20T15:31:44;100844.53;;;14.37;46.04
6778;BME280;3426;52.244;10.534;2023-03-20T15:34:19;100844.75;;;14.07;47.29
6778;BME280;3426;52.244;10.534;2023-03-20T15:36:46;100839.75;;;13.88;46.58